createdAt,value
2018-09-26T00:02:04.139Z,45.78
2018-09-26T00:04:30.475Z,45.90
2018-09-26T00:06:56.814Z,46.00
2018-09-26T00:09:23.160Z,46.23
2018-09-26T00:11:49.508Z,46.34
2018-09-26T00:14:15.845Z,46.09
2018-09-26T00:16:42.223Z,46.23
2018-09-26T00:19:08.564Z,46.07
2018-09-26T00:21:34.883Z,45.85
2018-09-26T00:24:01.264Z,46.04
2018-09-26T00:26:27.568Z,45.73
2018-09-26T00:28:53.906Z,45.91
2018-09-26T00:31:20.220Z,45.97
2018-09-26T00:33:46.535Z,46.10
2018-09-26T00:36:12.980Z,46.13
2018-09-26T00:38:39.192Z,46.48
2018-09-26T00:41:05.531Z,46.46
2018-09-26T00:43:31.866Z,46.67
2018-09-26T00:45:58.205Z,46.73
2018-09-26T00:48:24.520Z,46.79
2018-09-26T00:50:50.836Z,47.03
2018-09-26T00:53:17.156Z,47.09
2018-09-26T00:55:43.492Z,47.08
2018-09-26T00:58:09.826Z,46.86
2018-09-26T01:00:36.135Z,47.31
2018-09-26T01:03:02.479Z,47.12
2018-09-26T01:05:28.814Z,47.23
2018-09-26T01:07:55.239Z,47.38
2018-09-26T01:10:21.589Z,47.55
2018-09-26T01:12:47.929Z,47.51
2018-09-26T01:15:14.294Z,47.57
2018-09-26T01:17:40.605Z,47.74
2018-09-26T01:20:06.918Z,47.73
2018-09-26T01:22:33.254Z,48.02
2018-09-26T01:24:59.570Z,47.85
2018-09-26T01:27:25.921Z,48.00
2018-09-26T01:29:52.303Z,48.07
2018-09-26T01:32:18.612Z,48.14
2018-09-26T01:34:44.951Z,48.25
2018-09-26T01:37:11.264Z,48.03
2018-09-26T01:39:37.609Z,48.14
2018-09-26T01:42:03.925Z,47.96
2018-09-26T01:44:30.241Z,47.85
2018-09-26T01:46:56.583Z,48.33
2018-09-26T01:49:22.920Z,48.22
2018-09-26T01:51:49.259Z,48.20
2018-09-26T01:54:15.598Z,48.36
2018-09-26T01:56:41.913Z,48.38
2018-09-26T01:59:08.236Z,48.18
2018-09-26T02:01:34.566Z,48.53
2018-09-26T02:04:00.882Z,48.51
2018-09-26T02:06:27.215Z,48.59
2018-09-26T02:08:53.592Z,48.71
2018-09-26T02:11:19.908Z,48.80
2018-09-26T02:13:46.255Z,48.54
2018-09-26T02:16:12.596Z,48.51
2018-09-26T02:18:38.907Z,48.58
2018-09-26T02:21:05.242Z,48.78
2018-09-26T02:23:31.586Z,49.13
2018-09-26T02:25:57.903Z,49.03
2018-09-26T02:28:24.279Z,49.17
2018-09-26T02:30:50.674Z,49.24
2018-09-26T02:33:17.002Z,49.40
2018-09-26T02:35:43.318Z,49.53
2018-09-26T02:38:09.658Z,49.56
2018-09-26T02:40:36.020Z,49.51
2018-09-26T02:43:02.367Z,49.81
2018-09-26T02:45:28.686Z,49.75
2018-09-26T02:47:54.997Z,49.76
2018-09-26T02:50:21.335Z,49.77
2018-09-26T02:52:47.644Z,49.87
2018-09-26T02:55:13.983Z,49.97
2018-09-26T02:57:40.297Z,50.01
2018-09-26T03:00:06.611Z,50.04
2018-09-26T03:02:32.927Z,50.17
2018-09-26T03:04:59.247Z,50.21
2018-09-26T03:07:25.562Z,50.27
2018-09-26T03:09:51.883Z,50.44
2018-09-26T03:12:18.221Z,50.65
2018-09-26T03:14:44.539Z,50.66
2018-09-26T03:17:10.875Z,50.91
2018-09-26T03:19:37.214Z,50.96
2018-09-26T03:22:03.524Z,50.87
2018-09-26T03:24:29.863Z,50.97
2018-09-26T03:26:56.177Z,51.08
2018-09-26T03:29:22.499Z,51.32
2018-09-26T03:31:48.818Z,51.35
2018-09-26T03:34:15.188Z,51.41
2018-09-26T03:36:41.533Z,51.68
2018-09-26T03:39:07.845Z,51.41
2018-09-26T03:41:34.198Z,51.44
2018-09-26T03:44:00.531Z,51.68
2018-09-26T03:46:26.924Z,51.71
2018-09-26T03:48:53.237Z,51.78
2018-09-26T03:51:19.578Z,51.92
2018-09-26T03:53:45.896Z,52.04
2018-09-26T03:56:12.235Z,52.21
2018-09-26T03:58:38.575Z,52.32
2018-09-26T04:01:04.916Z,52.30
2018-09-26T04:03:31.233Z,52.32
2018-09-26T04:05:57.547Z,52.40
2018-09-26T04:08:23.888Z,52.35
2018-09-26T04:10:50.203Z,54.04
2018-09-26T04:13:16.537Z,56.67
2018-09-26T04:15:42.903Z,56.37
2018-09-26T04:18:09.167Z,56.28
2018-09-26T04:20:35.474Z,56.54
2018-09-26T04:23:01.814Z,56.94
2018-09-26T04:25:28.162Z,56.95
2018-09-26T04:27:54.491Z,56.61
2018-09-26T04:30:20.887Z,56.91
2018-09-26T04:32:47.286Z,61.83
2018-09-26T04:35:13.512Z,72.37
2018-09-26T04:37:39.827Z,65.81
2018-09-26T04:40:06.174Z,62.70
2018-09-26T04:42:32.479Z,61.16
2018-09-26T04:44:58.800Z,60.15
2018-09-26T04:47:25.117Z,59.97
2018-09-26T04:49:51.478Z,59.62
2018-09-26T04:52:17.816Z,58.28
2018-09-26T04:54:44.166Z,58.13
2018-09-26T04:57:10.503Z,58.25
2018-09-26T04:59:36.843Z,59.26
2018-09-26T05:02:03.159Z,58.31
2018-09-26T05:04:29.499Z,58.52
2018-09-26T05:06:55.860Z,58.81
2018-09-26T05:09:22.266Z,58.71
2018-09-26T05:11:48.602Z,58.76
2018-09-26T05:14:14.940Z,59.31
2018-09-26T05:16:41.254Z,59.55
2018-09-26T05:19:07.569Z,59.54
2018-09-26T05:21:33.882Z,59.01
2018-09-26T05:24:00.241Z,58.37
2018-09-26T05:26:26.538Z,58.57
2018-09-26T05:28:52.885Z,58.63
2018-09-26T05:31:19.193Z,58.94
2018-09-26T05:33:45.540Z,59.20
2018-09-26T05:36:11.855Z,58.51
2018-09-26T05:38:38.200Z,59.86
2018-09-26T05:41:04.540Z,60.56
2018-09-26T05:43:30.865Z,60.23
2018-09-26T05:45:57.173Z,60.40
2018-09-26T05:48:23.495Z,59.53
2018-09-26T05:50:49.819Z,59.50
2018-09-26T05:53:16.189Z,59.96
2018-09-26T05:55:42.536Z,59.96
2018-09-26T05:58:08.853Z,60.18
2018-09-26T06:00:35.191Z,59.92
2018-09-26T06:03:01.534Z,61.22
2018-09-26T06:05:27.916Z,61.24
2018-09-26T06:07:54.171Z,61.86
2018-09-26T06:10:20.508Z,61.52
2018-09-26T06:12:46.847Z,59.79
2018-09-26T06:15:13.171Z,59.40
2018-09-26T06:17:39.560Z,58.98
2018-09-26T06:20:05.899Z,59.35
2018-09-26T06:22:32.219Z,58.23
2018-09-26T06:24:58.564Z,57.32
2018-09-26T06:27:24.949Z,57.26
2018-09-26T06:29:51.270Z,56.86
2018-09-26T06:32:17.587Z,57.84
2018-09-26T06:34:43.903Z,58.12
2018-09-26T06:37:10.224Z,58.18
2018-09-26T06:39:36.541Z,59.14
2018-09-26T06:42:02.857Z,58.85
2018-09-26T06:44:29.190Z,59.47
2018-09-26T06:46:55.535Z,59.85
2018-09-26T06:49:21.871Z,59.78
2018-09-26T06:51:48.188Z,57.23
2018-09-26T06:54:14.548Z,56.57
2018-09-26T06:56:40.894Z,56.23
2018-09-26T06:59:07.241Z,56.11
2018-09-26T07:01:33.581Z,56.49
2018-09-26T07:03:59.933Z,54.74
2018-09-26T07:06:26.273Z,55.13
2018-09-26T07:08:52.585Z,55.17
2018-09-26T07:11:18.940Z,55.96
2018-09-26T07:13:45.276Z,55.83
2018-09-26T07:16:11.620Z,56.20
2018-09-26T07:18:37.959Z,54.56
2018-09-26T07:21:04.300Z,53.37
2018-09-26T07:23:30.662Z,52.01
2018-09-26T07:25:57.035Z,53.13
2018-09-26T07:28:23.396Z,53.35
2018-09-26T07:30:49.714Z,54.13
2018-09-26T07:33:16.116Z,53.31
2018-09-26T07:35:42.394Z,53.64
2018-09-26T07:38:08.733Z,52.62
2018-09-26T07:40:35.046Z,52.41
2018-09-26T07:43:01.390Z,53.67
2018-09-26T07:45:27.760Z,50.93
2018-09-26T07:47:54.018Z,52.40
2018-09-26T07:50:20.371Z,52.29
2018-09-26T07:52:46.686Z,50.52
2018-09-26T07:55:13.029Z,50.76
2018-09-26T07:57:39.349Z,48.37
2018-09-26T08:00:05.774Z,47.94
2018-09-26T08:02:32.013Z,46.90
2018-09-26T08:04:58.369Z,46.16
2018-09-26T08:07:24.703Z,46.34
2018-09-26T08:09:51.025Z,45.20
2018-09-26T08:12:17.371Z,46.30
2018-09-26T08:14:43.690Z,44.98
2018-09-26T08:17:10.038Z,45.76
2018-09-26T08:19:36.375Z,45.12
2018-09-26T08:22:02.701Z,45.21
2018-09-26T08:24:29.018Z,45.96
2018-09-26T08:26:55.360Z,44.83
2018-09-26T08:29:21.693Z,45.04
2018-09-26T08:31:48.045Z,45.16
2018-09-26T08:34:14.388Z,44.21
2018-09-26T08:36:40.733Z,44.81
2018-09-26T08:39:07.084Z,43.34
2018-09-26T08:41:33.428Z,43.05
2018-09-26T08:43:59.829Z,42.01
2018-09-26T08:46:26.088Z,43.96
2018-09-26T08:48:52.401Z,43.86
2018-09-26T08:51:18.722Z,42.31
2018-09-26T08:53:45.059Z,43.41
2018-09-26T08:56:11.384Z,42.94
2018-09-26T08:58:37.709Z,42.16
2018-09-26T09:01:04.022Z,41.80
2018-09-26T09:03:30.346Z,41.60
2018-09-26T09:05:56.685Z,41.08
2018-09-26T09:08:23.010Z,39.99
2018-09-26T09:10:49.350Z,40.27
2018-09-26T09:13:15.737Z,39.54
2018-09-26T09:15:42.075Z,39.70
2018-09-26T09:18:08.462Z,39.70
2018-09-26T09:20:34.863Z,39.72
2018-09-26T09:23:01.205Z,39.72
2018-09-26T09:25:27.560Z,40.26
2018-09-26T09:27:53.886Z,40.30
2018-09-26T09:30:20.235Z,39.58
2018-09-26T09:32:46.567Z,38.95
2018-09-26T09:35:12.967Z,39.29
2018-09-26T09:37:39.285Z,39.16
2018-09-26T09:40:05.631Z,38.79
2018-09-26T09:42:32.077Z,39.06
2018-09-26T09:44:58.420Z,38.50
2018-09-26T09:47:24.737Z,38.52
2018-09-26T09:49:51.054Z,38.19
2018-09-26T09:52:17.369Z,37.87
2018-09-26T09:54:43.685Z,37.88
2018-09-26T09:57:10.008Z,37.98
2018-09-26T09:59:36.369Z,39.05
2018-09-26T10:02:02.716Z,41.66
2018-09-26T10:04:29.035Z,41.00
2018-09-26T10:06:55.356Z,41.33
2018-09-26T10:09:21.675Z,42.17
2018-09-26T10:11:48.027Z,42.24
2018-09-26T10:14:14.388Z,39.43
2018-09-26T10:16:40.685Z,39.57
2018-09-26T10:19:07.023Z,40.76
2018-09-26T10:21:33.394Z,41.16
2018-09-26T10:23:59.728Z,40.47
2018-09-26T10:26:26.140Z,39.16
2018-09-26T10:28:52.398Z,37.72
2018-09-26T10:31:18.797Z,36.97
2018-09-26T10:33:45.140Z,37.19
2018-09-26T10:36:11.483Z,36.70
2018-09-26T10:38:37.887Z,36.96
2018-09-26T10:41:04.328Z,38.44
2018-09-26T10:43:30.676Z,37.80
2018-09-26T10:45:57.032Z,37.83
2018-09-26T10:48:23.371Z,37.71
2018-09-26T10:50:49.695Z,33.25
2018-09-26T10:53:16.006Z,33.71
2018-09-26T10:55:42.362Z,29.44
2018-09-26T10:58:08.746Z,32.28
2018-09-26T11:00:35.076Z,37.53
2018-09-26T11:03:01.401Z,37.34
2018-09-26T11:05:27.721Z,37.69
2018-09-26T11:07:54.038Z,38.43
2018-09-26T11:10:20.414Z,38.73
2018-09-26T11:12:46.783Z,38.69
2018-09-26T11:15:13.072Z,36.58
2018-09-26T11:17:39.387Z,37.35
2018-09-26T11:20:05.815Z,37.88
2018-09-26T11:22:32.090Z,37.84
2018-09-26T11:24:58.436Z,35.88
2018-09-26T11:27:24.820Z,35.84
2018-09-26T11:29:51.147Z,37.70
2018-09-26T11:32:17.545Z,33.87
2018-09-26T11:34:43.832Z,37.82
2018-09-26T11:37:10.148Z,37.04
2018-09-26T11:39:36.461Z,36.49
2018-09-26T11:42:02.807Z,35.43
2018-09-26T11:44:29.123Z,34.38
2018-09-26T11:46:55.466Z,32.45
2018-09-26T11:49:21.790Z,31.59
2018-09-26T11:51:48.144Z,31.83
2018-09-26T11:54:14.493Z,33.48
2018-09-26T11:56:40.865Z,33.86
2018-09-26T11:59:07.208Z,33.90
2018-09-26T12:01:33.549Z,33.89
2018-09-26T12:03:59.937Z,35.29
2018-09-26T12:06:26.278Z,34.00
2018-09-26T12:08:52.619Z,35.40
2018-09-26T12:11:18.942Z,37.41
2018-09-26T12:13:45.264Z,34.12
2018-09-26T12:16:11.646Z,34.12
2018-09-26T12:18:37.943Z,34.62
2018-09-26T12:21:04.284Z,36.95
2018-09-26T12:23:30.617Z,37.04
2018-09-26T12:25:57.000Z,36.66
2018-09-26T12:28:23.389Z,37.01
2018-09-26T12:30:49.670Z,35.84
2018-09-26T12:33:16.002Z,34.69
2018-09-26T12:35:42.397Z,34.29
2018-09-26T12:38:08.730Z,31.90
2018-09-26T12:40:35.074Z,33.86
2018-09-26T12:43:01.416Z,34.27
2018-09-26T12:45:27.757Z,34.48
2018-09-26T12:47:54.133Z,34.04
2018-09-26T12:50:20.482Z,33.95
2018-09-26T12:52:46.819Z,35.55
2018-09-26T12:55:13.157Z,36.42
2018-09-26T12:57:39.508Z,36.70
2018-09-26T13:00:05.843Z,36.14
2018-09-26T13:02:32.244Z,36.73
2018-09-26T13:04:58.590Z,35.67
2018-09-26T13:07:24.934Z,36.40
2018-09-26T13:09:51.286Z,36.89
2018-09-26T13:12:17.688Z,34.82
2018-09-26T13:14:44.046Z,35.85
2018-09-26T13:17:10.395Z,36.93
2018-09-26T13:19:36.779Z,37.02
2018-09-26T13:22:03.114Z,35.83
2018-09-26T13:24:29.460Z,37.24
2018-09-26T13:26:55.789Z,35.60
2018-09-26T13:29:22.129Z,36.16
2018-09-26T13:31:48.475Z,37.89
2018-09-26T13:34:14.856Z,38.62
2018-09-26T13:36:41.159Z,37.71
2018-09-26T13:39:07.598Z,35.85
2018-09-26T13:41:33.852Z,35.43
2018-09-26T13:44:00.197Z,35.13
2018-09-26T13:46:26.631Z,33.76
2018-09-26T13:48:52.874Z,31.40
2018-09-26T13:51:19.225Z,31.99
2018-09-26T13:53:45.580Z,32.55
2018-09-26T13:56:11.980Z,32.73
2018-09-26T13:58:38.263Z,32.62
2018-09-26T14:01:04.607Z,32.62
2018-09-26T14:03:30.947Z,32.86
2018-09-26T14:05:57.285Z,33.14
2018-09-26T14:08:23.651Z,33.47
2018-09-26T14:10:49.964Z,33.51
2018-09-26T14:13:16.302Z,33.87
2018-09-26T14:15:42.669Z,33.71
2018-09-26T14:18:09.048Z,33.81
2018-09-26T14:20:35.378Z,33.48
2018-09-26T14:23:01.757Z,33.46
2018-09-26T14:25:28.105Z,33.39
2018-09-26T14:27:54.438Z,33.24
2018-09-26T14:30:20.847Z,33.09
2018-09-26T14:32:47.103Z,33.45
2018-09-26T14:35:15.153Z,32.92
2018-09-26T14:37:39.806Z,32.91
2018-09-26T14:40:06.151Z,32.91
2018-09-26T14:42:32.466Z,32.51
2018-09-26T14:44:58.809Z,32.73
2018-09-26T14:47:25.245Z,32.71
2018-09-26T14:49:51.475Z,33.00
2018-09-26T14:52:17.850Z,33.11
2018-09-26T14:54:44.146Z,33.16
2018-09-26T14:57:10.525Z,33.36
2018-09-26T14:59:36.784Z,33.28
2018-09-26T15:02:03.134Z,33.38
2018-09-26T15:04:29.498Z,33.63
2018-09-26T15:06:55.775Z,33.58
2018-09-26T15:09:22.124Z,33.59
2018-09-26T15:11:48.482Z,33.95
2018-09-26T15:14:14.821Z,33.90
2018-09-26T15:16:41.148Z,33.87
2018-09-26T15:19:07.466Z,33.50
2018-09-26T15:21:33.783Z,33.30
2018-09-26T15:24:00.103Z,33.24
2018-09-26T15:26:26.510Z,33.31
2018-09-26T15:28:52.763Z,33.27
2018-09-26T15:31:19.096Z,33.61
2018-09-26T15:33:45.419Z,33.64
2018-09-26T15:36:11.774Z,33.95
2018-09-26T15:38:38.074Z,34.14
2018-09-26T15:41:04.430Z,34.04
2018-09-26T15:43:30.750Z,34.10
2018-09-26T15:45:57.129Z,34.55
2018-09-26T15:48:23.488Z,34.53
2018-09-26T15:50:49.798Z,34.66
2018-09-26T15:53:16.136Z,34.90
2018-09-26T15:55:42.477Z,36.37
2018-09-26T15:58:08.839Z,38.45
2018-09-26T16:00:35.129Z,37.62
2018-09-26T16:03:01.566Z,36.88
2018-09-26T16:05:27.869Z,36.53
2018-09-26T16:07:54.252Z,36.11
2018-09-26T16:10:20.657Z,35.56
2018-09-26T16:12:46.948Z,35.41
2018-09-26T16:15:13.293Z,35.31
2018-09-26T16:17:40.735Z,35.38
2018-09-26T16:20:07.083Z,35.75
2018-09-26T16:22:33.400Z,35.69
2018-09-26T16:24:59.714Z,35.61
2018-09-26T16:27:26.040Z,35.68
2018-09-26T16:29:52.379Z,35.37
2018-09-26T16:32:18.795Z,35.34
2018-09-26T16:34:45.038Z,35.21
2018-09-26T16:37:11.377Z,35.02
2018-09-26T16:39:37.766Z,35.05
2018-09-26T16:42:04.048Z,35.22
2018-09-26T16:44:30.392Z,35.01
2018-09-26T16:46:56.713Z,34.98
2018-09-26T16:49:23.025Z,34.67
2018-09-26T16:51:52.185Z,34.69
2018-09-26T16:54:18.580Z,34.98
2018-09-26T16:56:45.118Z,35.05
2018-09-26T16:59:11.351Z,34.89
2018-09-26T17:01:37.674Z,34.90
2018-09-26T17:04:04.083Z,34.88
2018-09-26T17:06:30.347Z,35.26
2018-09-26T17:08:56.691Z,35.12
2018-09-26T17:11:23.061Z,35.05
2018-09-26T17:13:49.444Z,35.29
2018-09-26T17:16:15.819Z,35.26
2018-09-26T17:18:42.122Z,35.33
2018-09-26T17:21:08.453Z,35.29
2018-09-26T17:23:34.766Z,35.53
2018-09-26T17:26:01.111Z,35.70
2018-09-26T17:28:27.550Z,35.90
2018-09-26T17:30:53.811Z,36.34
2018-09-26T17:33:20.141Z,36.77
2018-09-26T17:35:46.466Z,36.35
2018-09-26T17:38:12.792Z,36.33
2018-09-26T17:40:39.132Z,36.09
2018-09-26T17:43:05.553Z,36.71
2018-09-26T17:45:31.889Z,36.59
2018-09-26T17:47:58.226Z,36.78
2018-09-26T17:50:24.625Z,36.90
2018-09-26T17:52:50.925Z,37.06
2018-09-26T17:55:17.265Z,37.29
2018-09-26T17:57:43.583Z,37.57
2018-09-26T18:00:12.543Z,37.48
2018-09-26T18:02:38.841Z,37.61
2018-09-26T18:05:05.179Z,37.74
2018-09-26T18:07:31.524Z,37.96
2018-09-26T18:09:57.928Z,37.93
2018-09-26T18:12:30.478Z,38.15
2018-09-26T18:14:56.805Z,38.37
2018-09-26T18:17:23.156Z,38.43
2018-09-26T18:19:49.598Z,38.60
2018-09-26T18:22:15.925Z,38.79
2018-09-26T18:24:42.247Z,39.04
2018-09-26T18:27:08.619Z,39.22
2018-09-26T18:29:34.944Z,39.33
2018-09-26T18:32:01.286Z,39.94
2018-09-26T18:34:27.635Z,43.24
2018-09-26T18:36:53.964Z,41.84
2018-09-26T18:39:20.337Z,40.98
2018-09-26T18:41:46.593Z,40.56
2018-09-26T18:44:12.905Z,40.60
2018-09-26T18:46:39.257Z,40.75
2018-09-26T18:49:05.582Z,40.90
2018-09-26T18:51:31.901Z,40.81
2018-09-26T18:53:58.214Z,41.09
2018-09-26T18:56:24.556Z,40.94
2018-09-26T18:58:51.028Z,41.55
2018-09-26T19:01:18.217Z,42.80
2018-09-26T19:06:30.008Z,42.08
2018-09-26T19:08:56.403Z,41.86
2018-09-26T19:11:22.694Z,41.86
2018-09-26T19:13:49.031Z,41.97
2018-09-26T19:16:15.372Z,42.07
2018-09-26T19:18:41.725Z,42.36
2018-09-26T19:21:08.052Z,42.48
2018-09-26T19:23:34.395Z,42.50
2018-09-26T19:26:00.730Z,42.45
2018-09-26T19:28:27.116Z,42.75
2018-09-26T19:30:53.457Z,42.92
2018-09-26T19:33:19.774Z,43.18
2018-09-26T19:35:46.098Z,43.16
2018-09-26T19:38:12.416Z,43.25
2018-09-26T19:40:38.743Z,43.62
2018-09-26T19:43:05.065Z,43.62
2018-09-26T19:45:31.385Z,43.94
2018-09-26T19:47:57.741Z,43.82
2018-09-26T19:50:24.076Z,43.74
2018-09-26T19:52:50.424Z,43.59
2018-09-26T19:55:16.751Z,43.89
2018-09-26T19:57:43.074Z,43.94
2018-09-26T20:00:12.014Z,44.19
2018-09-26T20:02:38.303Z,44.05
2018-09-26T20:05:04.654Z,44.01
2018-09-26T20:07:30.972Z,44.25
2018-09-26T20:09:57.287Z,44.36
2018-09-26T20:12:23.636Z,44.35
2018-09-26T20:14:50.023Z,44.30
2018-09-26T20:17:16.341Z,44.33
2018-09-26T20:19:42.755Z,44.60
2018-09-26T20:22:09.194Z,44.56
2018-09-26T20:24:35.427Z,44.93
2018-09-26T20:27:02.008Z,45.04
2018-09-26T20:29:28.408Z,45.24
2018-09-26T20:31:54.610Z,45.46
2018-09-26T20:34:20.941Z,45.52
2018-09-26T20:36:47.264Z,45.46
2018-09-26T20:39:13.597Z,45.67
2018-09-26T20:41:39.935Z,45.67
2018-09-26T20:44:06.273Z,45.93
2018-09-26T20:46:32.618Z,46.14
2018-09-26T20:48:58.967Z,46.15
2018-09-26T20:51:25.300Z,46.42
2018-09-26T20:53:51.634Z,46.51
2018-09-26T20:56:17.974Z,46.56
2018-09-26T20:58:44.310Z,46.62
2018-09-26T21:01:10.644Z,46.64
2018-09-26T21:03:36.971Z,46.88
2018-09-26T21:06:03.324Z,46.89
2018-09-26T21:08:29.655Z,47.02
2018-09-26T21:10:56.001Z,47.09
2018-09-26T21:13:22.334Z,47.38
2018-09-26T21:15:48.668Z,47.40
2018-09-26T21:18:14.998Z,47.42
2018-09-26T21:20:41.341Z,47.55
2018-09-26T21:23:07.701Z,47.58
2018-09-26T21:25:34.004Z,47.40
2018-09-26T21:28:00.343Z,47.51
2018-09-26T21:30:26.684Z,47.59
2018-09-26T21:32:53.066Z,48.02
2018-09-26T21:35:19.385Z,47.97
2018-09-26T21:37:45.732Z,47.88
2018-09-26T21:40:12.048Z,47.87
2018-09-26T21:42:38.367Z,48.22
2018-09-26T21:45:04.706Z,48.11
2018-09-26T21:47:31.049Z,48.28
2018-09-26T21:49:57.398Z,48.33
2018-09-26T21:52:23.737Z,48.41
2018-09-26T21:54:50.080Z,48.60
2018-09-26T21:57:16.416Z,48.51
2018-09-26T21:59:42.729Z,48.27
2018-09-26T22:02:09.044Z,48.60
2018-09-26T22:04:35.383Z,48.81
2018-09-26T22:07:01.745Z,48.97
2018-09-26T22:09:28.039Z,48.82
2018-09-26T22:11:54.358Z,48.85
2018-09-26T22:14:20.672Z,48.97
2018-09-26T22:16:47.002Z,49.17
2018-09-26T22:19:13.316Z,49.33
2018-09-26T22:21:39.634Z,49.22
2018-09-26T22:24:05.970Z,49.19
2018-09-26T22:26:32.337Z,49.47
2018-09-26T22:28:58.679Z,49.65
2018-09-26T22:31:24.993Z,49.61
2018-09-26T22:33:51.329Z,49.73
2018-09-26T22:36:17.645Z,49.80
2018-09-26T22:38:43.986Z,49.80
2018-09-26T22:41:10.333Z,50.08
2018-09-26T22:43:36.672Z,50.10
2018-09-26T22:46:03.008Z,49.80
2018-09-26T22:48:29.326Z,49.99
2018-09-26T22:50:55.678Z,50.13
2018-09-26T22:53:21.992Z,50.39
2018-09-26T22:55:48.320Z,50.46
2018-09-26T22:58:14.705Z,50.48
2018-09-26T23:00:40.980Z,50.37
2018-09-26T23:03:07.325Z,50.42
2018-09-26T23:05:33.641Z,50.12
2018-09-26T23:07:59.981Z,50.21
2018-09-26T23:10:26.325Z,50.44
2018-09-26T23:12:52.648Z,50.43
2018-09-26T23:15:19.041Z,50.55
2018-09-26T23:17:45.319Z,50.58
2018-09-26T23:20:11.661Z,54.54
2018-09-26T23:22:38.000Z,59.35
2018-09-26T23:25:04.334Z,63.41
2018-09-26T23:27:30.649Z,64.76
2018-09-26T23:29:56.996Z,65.44
2018-09-26T23:32:23.337Z,65.71
2018-09-26T23:34:49.647Z,65.89
2018-09-26T23:37:15.961Z,66.14
2018-09-26T23:39:42.303Z,66.46
2018-09-26T23:42:08.620Z,66.78
2018-09-26T23:44:34.929Z,67.05
2018-09-26T23:47:01.240Z,67.33
2018-09-26T23:49:27.574Z,67.60
2018-09-26T23:51:53.894Z,67.81
2018-09-26T23:54:20.208Z,68.03
2018-09-26T23:56:46.525Z,68.36
2018-09-26T23:59:12.880Z,68.68
